Time;durP1;ratioP1;P1;durP2;ratioP2;P2;SDS_P1;SDS_P2;PMS_P1;PMS_P2;Temp;Humidity;BMP_temperature;BMP_pressure;BME280_temperature;BME280_humidity;BME280_pressure;Samples;Min_cycle;Max_cycle;Signal;HPM_P1;HPM_P2
2020/12/24 04:21:14;;;;;;;21.23;13.40;;;-1.70;95.70;;;;;;5100184;27;20374;-96
2020/12/24 16:06:59;;;;;;;53.95;34.08;;;0.10;97.50;;;;;;5071455;28;20332;-93
2020/12/24 16:09:24;;;;;;;52.08;31.95;;;0.00;98.20;;;;;;5062501;28;20087;-93
2020/12/24 16:11:53;;;;;;;50.65;33.08;;;0.10;98.20;;;;;;5049458;28;20432;-92
2020/12/24 16:14:19;;;;;;;57.28;37.05;;;0.20;98.60;;;;;;5054556;28;20024;-93
2020/12/24 16:16:47;;;;;;;61.90;37.42;;;0.30;98.70;;;;;;5055853;28;20026;-94
2020/12/24 16:19:13;;;;;;;52.72;34.70;;;0.50;98.70;;;;;;5055627;28;20029;-95
2020/12/24 16:21:39;;;;;;;70.45;41.55;;;0.50;98.50;;;;;;5069755;28;20034;-94
2020/12/24 16:24:05;;;;;;;61.28;36.13;;;0.60;98.60;;;;;;5064457;28;20035;-95
2020/12/24 16:26:31;;;;;;;53.60;31.38;;;0.70;98.50;;;;;;5054796;28;20029;-96
2020/12/24 16:28:56;;;;;;;58.67;34.00;;;0.80;98.20;;;;;;5049542;28;20049;-93
2020/12/24 16:31:22;;;;;;;63.42;33.53;;;0.80;98.10;;;;;;5050008;28;20108;-93
2020/12/24 16:33:48;;;;;;;83.93;42.80;;;0.90;98.10;;;;;;5049541;28;20179;-95
2020/12/24 16:36:19;;;;;;;91.35;47.33;;;0.90;97.90;;;;;;5055701;28;20033;-95
2020/12/24 16:38:49;;;;;;;99.35;50.83;;;1.00;97.80;;;;;;5053171;28;20021;-95
2020/12/24 16:41:17;;;;;;;109.35;54.17;;;1.00;97.70;;;;;;5049281;28;20183;-94
2020/12/24 16:43:47;;;;;;;88.25;48.40;;;1.10;97.50;;;;;;5057427;28;20036;-95
2020/12/24 16:46:13;;;;;;;89.15;48.65;;;1.10;97.50;;;;;;5049069;28;20087;-94
2020/12/24 16:48:39;;;;;;;105.90;53.70;;;1.10;97.30;;;;;;5050152;28;20100;-96
2020/12/24 16:51:07;;;;;;;95.05;50.20;;;1.10;97.20;;;;;;5054320;28;20060;-94
2020/12/24 16:53:32;;;;;;;101.38;53.30;;;1.20;97.10;;;;;;5049235;28;20492;-93
2020/12/24 16:55:58;;;;;;;86.80;48.95;;;1.20;97.10;;;;;;5064007;28;20029;-93
2020/12/24 16:58:25;;;;;;;69.00;37.97;;;1.20;97.10;;;;;;5069087;28;20025;-93
2020/12/24 17:00:51;;;;;;;81.88;49.92;;;1.20;97.10;;;;;;5067860;28;20045;-94
2020/12/24 17:03:17;;;;;;;107.90;63.97;;;1.30;96.90;;;;;;5048927;28;20025;-93
2020/12/24 17:05:46;;;;;;;96.65;59.40;;;1.20;96.90;;;;;;5048671;28;20046;-93
2020/12/24 17:08:11;;;;;;;90.85;54.60;;;1.20;96.80;;;;;;5048856;28;20079;-94
2020/12/24 17:10:37;;;;;;;92.18;50.22;;;1.20;96.90;;;;;;5048859;28;20025;-92
2020/12/24 17:13:03;;;;;;;86.90;41.38;;;1.30;96.80;;;;;;5048745;28;20018;-94
2020/12/24 17:15:28;;;;;;;82.57;45.42;;;1.30;96.80;;;;;;5048711;28;20074;-94
2020/12/24 17:17:54;;;;;;;90.15;41.10;;;1.30;96.70;;;;;;5038250;28;20021;-96
2020/12/24 17:20:20;;;;;;;93.05;41.53;;;1.30;96.70;;;;;;5035974;28;20025;-95
2020/12/24 17:22:45;;;;;;;133.27;50.25;;;1.30;96.70;;;;;;5036456;28;20029;-93
2020/12/24 17:25:11;;;;;;;132.57;51.15;;;1.30;96.70;;;;;;5035155;28;20110;-93
2020/12/24 17:27:37;;;;;;;203.88;65.70;;;1.30;96.60;;;;;;5035201;28;20017;-94
2020/12/24 17:30:03;;;;;;;220.15;71.63;;;1.30;96.60;;;;;;5034770;28;20029;-95
2020/12/24 17:32:30;;;;;;;235.13;72.35;;;1.30;96.60;;;;;;5035327;28;20093;-95
2020/12/24 17:34:55;;;;;;;229.32;67.45;;;1.30;96.50;;;;;;5034930;28;20030;-94
2020/12/24 17:37:21;;;;;;;208.65;66.93;;;1.40;96.50;;;;;;5035137;28;20033;-94
2020/12/24 17:39:47;;;;;;;244.98;75.03;;;1.40;96.60;;;;;;5036808;28;20433;-95
2020/12/24 17:42:13;;;;;;;261.40;78.22;;;1.40;96.50;;;;;;5035643;28;20035;-95
2020/12/24 17:44:38;;;;;;;266.85;89.32;;;1.40;96.50;;;;;;5035717;28;20025;-94
2020/12/24 17:47:04;;;;;;;221.30;70.93;;;1.40;96.40;;;;;;5035036;28;20028;-95
2020/12/24 17:49:30;;;;;;;256.90;84.28;;;1.40;96.30;;;;;;5034761;28;20466;-96
2020/12/24 17:51:55;;;;;;;306.42;101.63;;;1.40;96.30;;;;;;5035618;28;20104;-94
2020/12/24 17:54:22;;;;;;;287.60;92.45;;;1.40;96.30;;;;;;5036528;28;20108;-94
